Hatboro, Pennsylvania
Current Conditions -  °F | °C
As of 11:54 PM on Tuesday 21 Oct 2014 (Local Time) from KPNE Reporting Station
Clear Clear  
Wind Chill: 56°   Ceiling: Unl
Heat Index: 56°   Visibility: 10mi
Dew Point: 47°   Wind: 6mph
Humidity: 72%   Direction: 30°NNE
Pressure: 29.9"   Gusts: NA
Location:  40.17°N, 75.11°W
Report Text: KPNE 220354Z 03005KT 10SM CLR 13/08 A2990 RMK AO2 SLP124 T01330083 $
Loading
Personal Weather Stations






























Interactive Weather Map
Tropical Storm Tracking
New forecast layout! Learn more

10-Day Weather Forecast

Advertisements
Track Severe Weather on mobile